sensor_id;sensor_type;location;lat;lon;timestamp;pressure;altitude;pressure_sealevel;temperature;humidity
22572;BME280;11452;53.368;14.658;2023-01-30T00:04:00;100429.42;;;3.34;81.99
22572;BME280;11452;53.368;14.658;2023-01-30T00:09:09;100419.34;;;3.34;82.03
22572;BME280;11452;53.368;14.658;2023-01-30T00:14:14;100428.42;;;3.38;81.89
22572;BME280;11452;53.368;14.658;2023-01-30T00:19:20;100405.01;;;3.41;82.04
22572;BME280;11452;53.368;14.658;2023-01-30T00:24:25;100392.63;;;3.43;81.86
22572;BME280;11452;53.368;14.658;2023-01-30T00:29:31;100357.78;;;3.45;81.89
22572;BME280;11452;53.368;14.658;2023-01-30T00:34:37;100332.36;;;3.54;81.78
22572;BME280;11452;53.368;14.658;2023-01-30T00:39:43;100279.02;;;3.56;81.63
22572;BME280;11452;53.368;14.658;2023-01-30T00:44:49;100243.45;;;3.53;81.45
22572;BME280;11452;53.368;14.658;2023-01-30T00:50:12;100242.49;;;3.56;81.49
22572;BME280;11452;53.368;14.658;2023-01-30T00:55:19;100260.98;;;3.56;81.34
22572;BME280;11452;53.368;14.658;2023-01-30T01:00:24;100245.38;;;3.61;81.53
22572;BME280;11452;53.368;14.658;2023-01-30T01:05:30;100192.03;;;3.63;81.32
22572;BME280;11452;53.368;14.658;2023-01-30T01:10:36;100189.61;;;3.57;81.16
22572;BME280;11452;53.368;14.658;2023-01-30T01:15:41;100196.91;;;3.62;81.14
22572;BME280;11452;53.368;14.658;2023-01-30T01:20:47;100164.86;;;3.60;81.14
22572;BME280;11452;53.368;14.658;2023-01-30T01:25:53;100147.63;;;3.61;81.09
22572;BME280;11452;53.368;14.658;2023-01-30T01:30:58;100144.59;;;3.60;81.25
22572;BME280;11452;53.368;14.658;2023-01-30T01:36:06;100121.56;;;3.64;81.09
22572;BME280;11452;53.368;14.658;2023-01-30T01:41:15;100115.29;;;3.55;81.13
22572;BME280;11452;53.368;14.658;2023-01-30T01:46:24;100108.28;;;3.54;81.20
22572;BME280;11452;53.368;14.658;2023-01-30T01:51:39;100104.78;;;3.53;81.26
22572;BME280;11452;53.368;14.658;2023-01-30T01:56:46;100124.94;;;3.56;81.42
22572;BME280;11452;53.368;14.658;2023-01-30T02:01:56;100101.87;;;3.49;81.36
22572;BME280;11452;53.368;14.658;2023-01-30T02:07:02;100094.81;;;3.50;81.75
22572;BME280;11452;53.368;14.658;2023-01-30T02:12:08;100079.37;;;3.51;81.56
22572;BME280;11452;53.368;14.658;2023-01-30T02:17:14;100045.20;;;3.46;81.69
22572;BME280;11452;53.368;14.658;2023-01-30T02:33:25;100020.91;;;3.48;81.48
22572;BME280;11452;53.368;14.658;2023-01-30T02:38:41;99990.02;;;3.50;81.59
22572;BME280;11452;53.368;14.658;2023-01-30T02:44:20;100001.97;;;3.48;81.48
22572;BME280;11452;53.368;14.658;2023-01-30T02:49:27;99981.75;;;3.47;81.61
22572;BME280;11452;53.368;14.658;2023-01-30T02:54:32;99999.73;;;3.50;81.56
22572;BME280;11452;53.368;14.658;2023-01-30T02:59:41;99970.92;;;3.54;81.79
22572;BME280;11452;53.368;14.658;2023-01-30T03:05:03;99934.80;;;3.54;81.70
22572;BME280;11452;53.368;14.658;2023-01-30T03:15:40;99955.94;;;3.54;81.57
22572;BME280;11452;53.368;14.658;2023-01-30T03:20:46;99938.52;;;3.50;81.91
22572;BME280;11452;53.368;14.658;2023-01-30T03:25:52;99929.34;;;3.59;82.12
22572;BME280;11452;53.368;14.658;2023-01-30T03:30:58;99938.31;;;3.55;82.10
22572;BME280;11452;53.368;14.658;2023-01-30T03:36:05;99917.92;;;3.58;82.32
22572;BME280;11452;53.368;14.658;2023-01-30T03:41:11;99912.70;;;3.57;82.28
22572;BME280;11452;53.368;14.658;2023-01-30T03:46:16;99913.22;;;3.55;82.41
22572;BME280;11452;53.368;14.658;2023-01-30T03:51:22;99898.45;;;3.61;82.60
22572;BME280;11452;53.368;14.658;2023-01-30T03:56:29;99899.06;;;3.67;82.71
22572;BME280;11452;53.368;14.658;2023-01-30T04:01:35;99883.67;;;3.67;82.66
22572;BME280;11452;53.368;14.658;2023-01-30T04:06:41;99864.13;;;3.71;82.84
22572;BME280;11452;53.368;14.658;2023-01-30T04:11:47;99855.00;;;3.78;82.51
22572;BME280;11452;53.368;14.658;2023-01-30T04:16:53;99825.87;;;3.79;82.77
22572;BME280;11452;53.368;14.658;2023-01-30T04:22:02;99818.80;;;3.80;82.87
22572;BME280;11452;53.368;14.658;2023-01-30T04:27:08;99805.38;;;3.74;82.76
22572;BME280;11452;53.368;14.658;2023-01-30T04:32:16;99782.95;;;3.64;83.41
22572;BME280;11452;53.368;14.658;2023-01-30T04:37:21;99778.06;;;3.65;83.48
22572;BME280;11452;53.368;14.658;2023-01-30T04:42:27;99762.61;;;3.66;83.70
22572;BME280;11452;53.368;14.658;2023-01-30T04:48:02;99755.48;;;3.68;83.69
22572;BME280;11452;53.368;14.658;2023-01-30T04:53:09;99748.34;;;3.70;83.96
22572;BME280;11452;53.368;14.658;2023-01-30T04:58:16;99746.62;;;3.69;84.30
22572;BME280;11452;53.368;14.658;2023-01-30T05:03:23;99707.79;;;3.61;84.31
22572;BME280;11452;53.368;14.658;2023-01-30T05:08:29;99711.84;;;3.50;85.04
22572;BME280;11452;53.368;14.658;2023-01-30T05:13:34;99705.08;;;3.53;85.26
22572;BME280;11452;53.368;14.658;2023-01-30T05:18:40;99700.81;;;3.50;85.43
22572;BME280;11452;53.368;14.658;2023-01-30T05:23:46;99690.45;;;3.45;86.02
22572;BME280;11452;53.368;14.658;2023-01-30T05:28:56;99679.63;;;3.52;86.26
22572;BME280;11452;53.368;14.658;2023-01-30T05:34:02;99641.27;;;3.43;86.70
22572;BME280;11452;53.368;14.658;2023-01-30T05:39:07;99665.30;;;3.47;87.08
22572;BME280;11452;53.368;14.658;2023-01-30T05:44:13;99670.21;;;3.55;87.24
22572;BME280;11452;53.368;14.658;2023-01-30T05:49:18;99663.08;;;3.57;87.28
22572;BME280;11452;53.368;14.658;2023-01-30T05:54:24;99670.41;;;3.60;87.22
22572;BME280;11452;53.368;14.658;2023-01-30T05:59:30;99660.50;;;3.65;87.42
22572;BME280;11452;53.368;14.658;2023-01-30T06:04:35;99642.94;;;3.64;87.51
22572;BME280;11452;53.368;14.658;2023-01-30T06:09:40;99636.33;;;3.64;87.68
22572;BME280;11452;53.368;14.658;2023-01-30T06:14:46;99635.80;;;3.66;87.73
22572;BME280;11452;53.368;14.658;2023-01-30T06:19:51;99643.52;;;3.71;88.05
22572;BME280;11452;53.368;14.658;2023-01-30T06:24:57;99634.97;;;3.74;88.21
22572;BME280;11452;53.368;14.658;2023-01-30T06:30:03;99643.29;;;3.75;88.44
22572;BME280;11452;53.368;14.658;2023-01-30T06:35:09;99622.20;;;3.84;88.44
22572;BME280;11452;53.368;14.658;2023-01-30T06:40:15;99634.50;;;3.94;88.64
22572;BME280;11452;53.368;14.658;2023-01-30T06:45:21;99632.25;;;3.95;88.68
22572;BME280;11452;53.368;14.658;2023-01-30T06:50:28;99624.86;;;3.93;88.95
22572;BME280;11452;53.368;14.658;2023-01-30T06:55:34;99623.30;;;4.07;89.22
22572;BME280;11452;53.368;14.658;2023-01-30T07:00:41;99615.59;;;4.11;89.52
22572;BME280;11452;53.368;14.658;2023-01-30T07:05:47;99622.45;;;4.15;89.36
22572;BME280;11452;53.368;14.658;2023-01-30T07:10:52;99620.52;;;4.19;89.52
22572;BME280;11452;53.368;14.658;2023-01-30T07:15:58;99629.49;;;4.34;89.73
22572;BME280;11452;53.368;14.658;2023-01-30T07:21:04;99629.67;;;4.39;89.88
22572;BME280;11452;53.368;14.658;2023-01-30T07:26:09;99632.78;;;4.47;90.04
22572;BME280;11452;53.368;14.658;2023-01-30T07:31:15;99632.41;;;4.55;90.00
22572;BME280;11452;53.368;14.658;2023-01-30T07:36:21;99643.55;;;4.70;90.30
22572;BME280;11452;53.368;14.658;2023-01-30T07:41:27;99640.77;;;4.82;90.40
22572;BME280;11452;53.368;14.658;2023-01-30T07:46:32;99655.32;;;4.91;90.31
22572;BME280;11452;53.368;14.658;2023-01-30T07:51:40;99663.74;;;4.99;90.32
22572;BME280;11452;53.368;14.658;2023-01-30T07:56:46;99648.84;;;5.05;90.33
22572;BME280;11452;53.368;14.658;2023-01-30T08:01:51;99654.67;;;5.20;90.42
22572;BME280;11452;53.368;14.658;2023-01-30T08:06:57;99654.52;;;5.23;90.18
22572;BME280;11452;53.368;14.658;2023-01-30T08:12:03;99658.00;;;5.41;90.10
22572;BME280;11452;53.368;14.658;2023-01-30T08:17:08;99658.00;;;5.41;90.10
22572;BME280;11452;53.368;14.658;2023-01-30T08:22:14;99648.41;;;5.55;90.06
22572;BME280;11452;53.368;14.658;2023-01-30T08:27:19;99648.41;;;5.55;90.06
22572;BME280;11452;53.368;14.658;2023-01-30T08:32:25;99646.66;;;5.63;89.64
22572;BME280;11452;53.368;14.658;2023-01-30T08:37:30;99647.97;;;5.72;89.69
22572;BME280;11452;53.368;14.658;2023-01-30T08:42:36;99659.73;;;5.75;89.34
22572;BME280;11452;53.368;14.658;2023-01-30T08:47:42;99642.58;;;5.98;89.39
22572;BME280;11452;53.368;14.658;2023-01-30T08:52:47;99638.19;;;5.89;89.04
22572;BME280;11452;53.368;14.658;2023-01-30T08:58:01;99618.77;;;6.05;89.29
22572;BME280;11452;53.368;14.658;2023-01-30T09:03:01;99621.77;;;6.30;89.22
22572;BME280;11452;53.368;14.658;2023-01-30T09:08:07;99634.43;;;6.25;88.40
22572;BME280;11452;53.368;14.658;2023-01-30T09:13:12;99625.78;;;6.21;87.97
22572;BME280;11452;53.368;14.658;2023-01-30T09:18:18;99617.48;;;6.28;87.95
22572;BME280;11452;53.368;14.658;2023-01-30T09:23:24;99608.69;;;6.34;88.30
22572;BME280;11452;53.368;14.658;2023-01-30T09:28:29;99608.34;;;6.40;88.64
22572;BME280;11452;53.368;14.658;2023-01-30T09:33:35;99598.55;;;6.56;88.83
22572;BME280;11452;53.368;14.658;2023-01-30T09:38:40;99597.48;;;6.52;87.61
22572;BME280;11452;53.368;14.658;2023-01-30T09:44:05;99580.23;;;6.52;87.62
22572;BME280;11452;53.368;14.658;2023-01-30T09:49:20;99594.95;;;6.57;87.12
22572;BME280;11452;53.368;14.658;2023-01-30T09:59:50;99594.55;;;6.79;86.31
22572;BME280;11452;53.368;14.658;2023-01-30T10:04:44;99602.34;;;6.82;85.61
22572;BME280;11452;53.368;14.658;2023-01-30T10:15:38;99677.25;;;6.42;82.25
22572;BME280;11452;53.368;14.658;2023-01-30T10:21:00;99588.83;;;5.78;82.57
22572;BME280;11452;53.368;14.658;2023-01-30T10:26:13;99602.05;;;5.71;82.96
22572;BME280;11452;53.368;14.658;2023-01-30T10:31:21;99611.66;;;5.81;83.38
22572;BME280;11452;53.368;14.658;2023-01-30T10:41:57;99607.31;;;6.04;83.57
22572;BME280;11452;53.368;14.658;2023-01-30T11:08:26;99586.65;;;6.41;83.30
22572;BME280;11452;53.368;14.658;2023-01-30T11:13:32;99572.82;;;6.43;83.03
22572;BME280;11452;53.368;14.658;2023-01-30T11:18:49;99560.70;;;6.46;82.90
22572;BME280;11452;53.368;14.658;2023-01-30T11:24:02;99556.73;;;6.46;82.66
22572;BME280;11452;53.368;14.658;2023-01-30T11:29:26;99557.92;;;6.40;82.78
22572;BME280;11452;53.368;14.658;2023-01-30T11:34:32;99544.19;;;6.41;82.93
22572;BME280;11452;53.368;14.658;2023-01-30T11:39:37;99568.45;;;6.19;82.33
22572;BME280;11452;53.368;14.658;2023-01-30T11:44:44;99549.89;;;5.56;82.02
22572;BME280;11452;53.368;14.658;2023-01-30T11:49:53;99559.41;;;5.27;82.62
22572;BME280;11452;53.368;14.658;2023-01-30T11:55:04;99591.42;;;4.81;82.30
22572;BME280;11452;53.368;14.658;2023-01-30T12:00:20;99569.94;;;4.44;82.64
22572;BME280;11452;53.368;14.658;2023-01-30T12:05:24;99532.81;;;4.37;83.69
22572;BME280;11452;53.368;14.658;2023-01-30T12:10:31;99498.75;;;4.39;84.38
22572;BME280;11452;53.368;14.658;2023-01-30T12:15:37;99498.75;;;4.39;84.38
22572;BME280;11452;53.368;14.658;2023-01-30T12:21:10;99494.94;;;4.36;84.49
22572;BME280;11452;53.368;14.658;2023-01-30T12:31:38;99480.09;;;4.25;85.18
22572;BME280;11452;53.368;14.658;2023-01-30T12:58:39;99433.84;;;5.38;87.28
22572;BME280;11452;53.368;14.658;2023-01-30T13:09:18;99446.92;;;5.96;86.63
22572;BME280;11452;53.368;14.658;2023-01-30T13:14:32;99449.26;;;6.16;85.98
22572;BME280;11452;53.368;14.658;2023-01-30T13:30:25;99469.01;;;6.33;83.96
22572;BME280;11452;53.368;14.658;2023-01-30T13:36:17;99466.09;;;6.31;83.18
22572;BME280;11452;53.368;14.658;2023-01-30T13:40:44;99475.55;;;6.35;83.27
22572;BME280;11452;53.368;14.658;2023-01-30T13:45:53;99464.00;;;6.29;82.58
22572;BME280;11452;53.368;14.658;2023-01-30T14:12:27;99470.95;;;6.15;81.76
22572;BME280;11452;53.368;14.658;2023-01-30T14:17:33;99450.76;;;6.06;81.68
22572;BME280;11452;53.368;14.658;2023-01-30T14:22:55;99468.68;;;6.09;81.80
22572;BME280;11452;53.368;14.658;2023-01-30T14:38:36;99460.94;;;5.90;81.39
22572;BME280;11452;53.368;14.658;2023-01-30T14:48:55;99474.03;;;5.85;81.88
22572;BME280;11452;53.368;14.658;2023-01-30T14:59:23;99480.31;;;5.75;82.42
22572;BME280;11452;53.368;14.658;2023-01-30T15:04:53;99481.38;;;5.73;82.86
22572;BME280;11452;53.368;14.658;2023-01-30T15:20:48;99514.44;;;5.34;82.93
22572;BME280;11452;53.368;14.658;2023-01-30T15:31:23;99496.84;;;5.33;84.10
22572;BME280;11452;53.368;14.658;2023-01-30T15:41:38;99527.39;;;5.47;84.57
22572;BME280;11452;53.368;14.658;2023-01-30T15:47:02;99540.94;;;5.50;84.57
22572;BME280;11452;53.368;14.658;2023-01-30T15:52:11;99558.40;;;5.70;84.85
22572;BME280;11452;53.368;14.658;2023-01-30T15:57:19;99558.40;;;5.70;84.85
22572;BME280;11452;53.368;14.658;2023-01-30T16:02:27;99566.37;;;5.61;84.92
22572;BME280;11452;53.368;14.658;2023-01-30T16:07:32;99586.17;;;5.63;85.04
22572;BME280;11452;53.368;14.658;2023-01-30T16:12:38;99593.88;;;5.67;85.02
22572;BME280;11452;53.368;14.658;2023-01-30T16:17:49;99597.33;;;5.76;84.98
22572;BME280;11452;53.368;14.658;2023-01-30T16:22:53;99610.70;;;5.75;84.78
22572;BME280;11452;53.368;14.658;2023-01-30T16:27:59;99624.45;;;5.81;84.82
22572;BME280;11452;53.368;14.658;2023-01-30T16:33:06;99624.30;;;5.76;84.25
22572;BME280;11452;53.368;14.658;2023-01-30T16:38:34;99638.53;;;5.75;84.18
22572;BME280;11452;53.368;14.658;2023-01-30T16:43:39;99633.16;;;5.68;83.96
22572;BME280;11452;53.368;14.658;2023-01-30T16:48:47;99651.94;;;5.72;84.22
22572;BME280;11452;53.368;14.658;2023-01-30T16:53:56;99666.83;;;5.74;84.08
22572;BME280;11452;53.368;14.658;2023-01-30T16:59:02;99683.20;;;5.74;83.76
22572;BME280;11452;53.368;14.658;2023-01-30T17:04:20;99683.83;;;5.70;83.53
22572;BME280;11452;53.368;14.658;2023-01-30T17:09:37;99706.88;;;5.77;83.38
22572;BME280;11452;53.368;14.658;2023-01-30T17:14:45;99729.32;;;5.78;83.36
22572;BME280;11452;53.368;14.658;2023-01-30T17:19:50;99729.88;;;5.76;83.34
22572;BME280;11452;53.368;14.658;2023-01-30T17:25:01;99752.74;;;5.70;82.94
22572;BME280;11452;53.368;14.658;2023-01-30T17:30:15;99751.27;;;5.73;83.05
22572;BME280;11452;53.368;14.658;2023-01-30T17:35:22;99769.43;;;5.72;82.78
22572;BME280;11452;53.368;14.658;2023-01-30T17:40:33;99779.64;;;5.71;82.95
22572;BME280;11452;53.368;14.658;2023-01-30T17:45:40;99776.60;;;5.70;83.00
22572;BME280;11452;53.368;14.658;2023-01-30T17:50:46;99780.66;;;5.69;82.93
22572;BME280;11452;53.368;14.658;2023-01-30T17:55:52;99781.36;;;5.72;83.16
22572;BME280;11452;53.368;14.658;2023-01-30T18:00:57;99778.39;;;5.70;82.94
22572;BME280;11452;53.368;14.658;2023-01-30T18:06:03;99808.31;;;5.80;83.23
22572;BME280;11452;53.368;14.658;2023-01-30T18:11:09;99808.31;;;5.80;83.23
22572;BME280;11452;53.368;14.658;2023-01-30T18:16:22;99830.69;;;5.83;83.03
22572;BME280;11452;53.368;14.658;2023-01-30T18:21:24;99865.80;;;5.97;82.62
22572;BME280;11452;53.368;14.658;2023-01-30T18:26:30;99865.80;;;5.97;82.62
22572;BME280;11452;53.368;14.658;2023-01-30T18:31:36;99864.27;;;5.93;82.29
22572;BME280;11452;53.368;14.658;2023-01-30T18:36:42;99873.14;;;6.01;82.08
22572;BME280;11452;53.368;14.658;2023-01-30T18:41:47;99870.64;;;6.06;82.13
22572;BME280;11452;53.368;14.658;2023-01-30T18:46:53;99878.19;;;6.14;82.07
22572;BME280;11452;53.368;14.658;2023-01-30T18:51:58;99889.73;;;6.13;81.79
22572;BME280;11452;53.368;14.658;2023-01-30T18:57:04;99892.96;;;6.11;81.84
22572;BME280;11452;53.368;14.658;2023-01-30T19:02:11;99899.98;;;6.12;81.36
22572;BME280;11452;53.368;14.658;2023-01-30T19:07:17;99917.36;;;6.17;81.16
22572;BME280;11452;53.368;14.658;2023-01-30T19:12:22;99919.55;;;6.27;80.76
22572;BME280;11452;53.368;14.658;2023-01-30T19:17:46;99923.06;;;6.27;80.32
22572;BME280;11452;53.368;14.658;2023-01-30T19:22:51;99956.28;;;6.34;79.83
22572;BME280;11452;53.368;14.658;2023-01-30T19:27:58;99969.25;;;6.40;79.30
22572;BME280;11452;53.368;14.658;2023-01-30T19:33:03;99970.26;;;6.38;78.18
22572;BME280;11452;53.368;14.658;2023-01-30T19:38:09;99990.70;;;6.36;77.15
22572;BME280;11452;53.368;14.658;2023-01-30T19:43:15;99980.41;;;6.38;76.31
22572;BME280;11452;53.368;14.658;2023-01-30T19:48:21;100040.28;;;6.44;76.24
22572;BME280;11452;53.368;14.658;2023-01-30T19:53:26;100029.35;;;6.41;75.21
22572;BME280;11452;53.368;14.658;2023-01-30T19:58:34;100027.33;;;6.46;74.89
22572;BME280;11452;53.368;14.658;2023-01-30T20:03:40;100053.55;;;6.44;74.58
22572;BME280;11452;53.368;14.658;2023-01-30T20:08:47;100043.72;;;6.46;74.34
22572;BME280;11452;53.368;14.658;2023-01-30T20:13:54;100060.11;;;6.45;73.72
22572;BME280;11452;53.368;14.658;2023-01-30T20:19:06;100068.20;;;6.34;73.14
22572;BME280;11452;53.368;14.658;2023-01-30T20:24:14;100071.89;;;6.40;73.39
22572;BME280;11452;53.368;14.658;2023-01-30T20:29:20;100080.14;;;6.34;72.99
22572;BME280;11452;53.368;14.658;2023-01-30T20:34:25;100109.19;;;6.28;72.49
22572;BME280;11452;53.368;14.658;2023-01-30T20:39:31;100135.66;;;6.38;72.60
22572;BME280;11452;53.368;14.658;2023-01-30T20:44:36;100122.77;;;6.31;71.75
22572;BME280;11452;53.368;14.658;2023-01-30T20:49:43;100138.98;;;6.24;71.76
22572;BME280;11452;53.368;14.658;2023-01-30T20:54:48;100135.00;;;6.24;71.98
22572;BME280;11452;53.368;14.658;2023-01-30T20:59:54;100149.69;;;6.13;71.34
22572;BME280;11452;53.368;14.658;2023-01-30T21:05:00;100173.27;;;6.10;71.49
22572;BME280;11452;53.368;14.658;2023-01-30T21:10:06;100187.40;;;6.11;71.28
22572;BME280;11452;53.368;14.658;2023-01-30T21:15:13;100189.61;;;6.01;70.97
22572;BME280;11452;53.368;14.658;2023-01-30T21:20:19;100189.20;;;6.00;70.79
22572;BME280;11452;53.368;14.658;2023-01-30T21:25:25;100210.56;;;5.97;70.62
22572;BME280;11452;53.368;14.658;2023-01-30T21:30:30;100208.23;;;6.00;70.66
22572;BME280;11452;53.368;14.658;2023-01-30T21:35:36;100240.91;;;6.75;67.61
22572;BME280;11452;53.368;14.658;2023-01-30T21:40:48;100245.50;;;6.07;69.22
22572;BME280;11452;53.368;14.658;2023-01-30T21:45:58;100257.10;;;5.84;68.88
22572;BME280;11452;53.368;14.658;2023-01-30T21:51:09;100280.91;;;5.85;69.52
22572;BME280;11452;53.368;14.658;2023-01-30T21:56:14;100268.17;;;5.83;69.45
22572;BME280;11452;53.368;14.658;2023-01-30T22:01:20;100271.31;;;5.73;69.29
22572;BME280;11452;53.368;14.658;2023-01-30T22:06:26;100287.22;;;5.73;69.19
22572;BME280;11452;53.368;14.658;2023-01-30T22:11:34;100283.97;;;5.66;69.03
22572;BME280;11452;53.368;14.658;2023-01-30T22:16:41;100295.51;;;5.55;69.05
22572;BME280;11452;53.368;14.658;2023-01-30T22:21:46;100314.03;;;5.45;68.66
22572;BME280;11452;53.368;14.658;2023-01-30T22:26:52;100314.03;;;5.45;68.66
22572;BME280;11452;53.368;14.658;2023-01-30T22:31:58;100317.48;;;5.47;68.77
22572;BME280;11452;53.368;14.658;2023-01-30T22:37:03;100325.84;;;5.16;68.84
22572;BME280;11452;53.368;14.658;2023-01-30T22:42:09;100325.84;;;5.16;68.84
22572;BME280;11452;53.368;14.658;2023-01-30T22:47:14;100341.98;;;5.10;69.08
22572;BME280;11452;53.368;14.658;2023-01-30T22:52:20;100341.98;;;5.10;69.08
22572;BME280;11452;53.368;14.658;2023-01-30T22:57:26;100343.52;;;5.15;69.07
22572;BME280;11452;53.368;14.658;2023-01-30T23:02:31;100346.58;;;5.16;69.08
22572;BME280;11452;53.368;14.658;2023-01-30T23:07:37;100344.05;;;5.13;68.82
22572;BME280;11452;53.368;14.658;2023-01-30T23:12:42;100349.64;;;5.06;68.83
22572;BME280;11452;53.368;14.658;2023-01-30T23:18:07;100358.31;;;4.99;68.76
22572;BME280;11452;53.368;14.658;2023-01-30T23:23:31;100354.74;;;5.00;68.75
22572;BME280;11452;53.368;14.658;2023-01-30T23:28:36;100367.17;;;4.86;68.75
22572;BME280;11452;53.368;14.658;2023-01-30T23:33:42;100374.22;;;4.76;68.77
22572;BME280;11452;53.368;14.658;2023-01-30T23:38:50;100378.80;;;4.82;68.73
22572;BME280;11452;53.368;14.658;2023-01-30T23:43:56;100383.48;;;4.76;68.40
22572;BME280;11452;53.368;14.658;2023-01-30T23:49:04;100391.59;;;4.71;68.65
22572;BME280;11452;53.368;14.658;2023-01-30T23:54:11;100399.97;;;4.82;68.73
22572;BME280;11452;53.368;14.658;2023-01-30T23:59:17;100381.94;;;4.82;68.37
